Estación Meteorológica Peña el Pijo (Robertgarden) [ 12/14/19 08:40:08 CET ]

Fecha Hora Presion(HPa) Temp (°C) Humedad % Rocio (°C) Viento ( m/s) Direccion Lluvia 1Hora(mm) Lluvia 24H(mm) LLuvia Total(mm)
2019-Nov-08 01:01:57 1001.100 6.5 64 0.2         22.27
2019-Nov-08 02:01:46 1000.800 5.8 64 -0.5         22.27
2019-Nov-08 03:03:17 1001.200 5.5 66 -0.4 2.4 W     22.27
2019-Nov-08 04:01:44 1001.800 5.0 65 -1.1         22.27
2019-Nov-08 05:01:58 1001.900 4.9 67 -0.7 1.9 NNW     22.27
2019-Nov-08 06:01:52 1002.100 4.6 66 -1.2         22.27
2019-Nov-08 07:01:47 1002.200 4.1 70 -0.9         22.27
2019-Nov-08 08:01:49 1002.900 3.9 72 -0.7         22.27
2019-Nov-08 09:01:44 1003.900 4.4 69 -0.8         22.27
2019-Nov-08 10:01:47 1004.500 7.2 60 -0.0 1.3 N     22.27
2019-Nov-08 11:02:04 1004.400 5.9 60 -1.3         22.27
2019-Nov-08 12:01:51 1004.600 9.0 51 -0.6         22.27
2019-Nov-08 13:02:29 1004.500 9.3 49 -0.9         22.27
2019-Nov-08 14:01:46 1004.800 10.2 49 -0.0         22.27
2019-Nov-08 15:01:44 1005.100 9.8 48 -0.7         22.27
2019-Nov-08 16:01:42 1005.300 10.2 49 -0.0         22.27
2019-Nov-08 17:01:44 1006.400 9.4 50 -0.5         22.27
2019-Nov-08 18:01:39 1006.800 6.5 59 -0.9         22.27
2019-Nov-08 19:02:01 1007.700 5.5 64 -0.8         22.27
2019-Nov-08 20:01:46 1007.900 5.4 67 -0.2         22.27
2019-Nov-08 21:01:57 1008.200 4.9 68 -0.5         22.27
2019-Nov-08 22:01:50 1008.600 4.4 70 -0.6         22.27
2019-Nov-08 23:01:46 1009.100 4.1 70 -0.9         22.27

Temperatura Máxima:10°    Temperatura Mínima:
Presión Máxima:1009.100 Hpa    Presión Mínima:1000.800 Hpa


Volver